CHOCHARLOTTESVILLE-ALBEMARLE
METARs for airports near CHO, sorted by distance:
N 0 nm 640' KCHO 142153Z 16005KT 10SM BKN090 33/19 A2997
E 13 nm 454' KGVE 142215Z 00000KT 10SM CLR 34/21 A2997
E 20 nm 464' KOMH 142215Z 17003KT 10SM CLR 33/20 A2999
W 22 nm 1201' KSHD 142215Z 23008KT 10SM SCT090 35/16 A3002
E 24 nm 493' KLKU 142215Z 13003KT 10SM SCT100 33/21 A2998
NW 27 nm 1165' KVBW 142215Z 25006KT 10SM SCT120 34/16 A2999
N 31 nm 902' KLUA 142215Z 00000KT 10SM 36/17 A2998
NE 36 nm 315' KCJR 142215Z 17005KT 10SM CLR 35/17 A2997
NE 44 nm 336' KHWY 142215Z 18005KT 10SM CLR 35/17 A2996
S 46 nm 415' KFVX 142215Z 19006KT 10SM CLR 33/22 A2997
N 47 nm 703' KFRR 142215Z 18005KT SCT100 35/17 A2996
E 47 nm 85' KEZF 142215Z 00000KT 10SM CLR 35/18 A2995
E 49 nm 219' KRMN 142215Z 21005KT 10SM CLR 35/14 A2996
SE 54 nm 206' KOFP 142154Z 23007KT 10SM CLR 36/20 A2997
NE 56 nm 192' KHEF 142156Z 21007KT 10SM CLR 35/19 A2996
NE 58 nm 10' KNYG 142156Z 5SM CLR 36/21 A2995
SW 60 nm 938' KLYH 142154Z VRB04KT 10SM SCT095 36/17 A3001
N 61 nm 726' KOKV 142215Z 26003KT 10SM SCT100 35/14 A2995
SE 62 nm 236' KFCI 142156Z 21005KT 10SM CLR 34/22 A2998
SE 65 nm 167' KRIC 142154Z 19009KT 10SM FEW050 35/22 A2996
W 66 nm 3792' KHSP 142215Z 27012G16KT 10SM 30/15 A3021
NE 67 nm 312' KIAD 142152Z 21010KT 10SM FEW090 FEW140 35/18 A2995
S 68 nm 437' KBKT 142155Z 22005KT 10SM CLR 34/22 A2998
NE 69 nm 73' KDAA 142155Z 18005KT 10SM CLR 36/17 A2992
NE 70 nm 389' KJYO 142215Z 21006KT 170V230 10SM SCT100 SCT120 36/21 A2996
SE 72 nm 192' KPTB 142215Z 15003KT 10SM CLR 33/23 A2999
E 75 nm 135' KXSA 142215Z 17004KT 10SM CLR 34/24 A2998
N 78 nm 564' KMRB 142153Z 24007KT 10SM CLR 36/12 A2993
NE 79 nm 14' KDCA 142152Z 20007KT 10SM FEW080 FEW250 37/17 A2993
NW 79 nm 1987' KEKN 142151Z 25007KT 220V280 10SM FEW070 32/17 A3009
S 81 nm 503' KCXE 142215Z 16003KT 10SM CLR 34/22 A3000
NE 84 nm 279' KADW 142155Z 13010KT 10SM CLR 31/21 A2993
NE 86 nm 538' KGAI 142156Z VRB03KT 3SM BR OVC070 A2997
SW 87 nm 1175' KROA 142154Z 25008KT 10SM SCT100 37/14 A3004
S 87 nm 328' KLVL 142215Z 00000KT 10SM CLR 35/24 A3000
NE 87 nm 48' KCGS 142205Z 12006KT 10SM CLR 33/23 A2995
SE 88 nm 20' KFYJ 142215Z 00000KT 5SM CLR 33/24 A2997
S 89 nm 441' KAVC 142215Z 00000KT 10SM CLR 35/22 A3005
N 89 nm 775' KCBE 142205Z 28016G21KT 10SM CLR 36/10 A3001
NE 91 nm 308' KFDK 142147Z 00000KT 10SM CLR 37/16 A2994
W 93 nm 2301' KLWB 142151Z 32007G16KT 10SM CLR 31/16 A3013
E 96 nm 38' KNHK 142152Z 13007KT 10SM SCT050 BKN240 33/25 A2995
NE 97 nm 150' KFME 142209Z 17006KT 10SM CLR 31/22 A2998
SE 97 nm 111' KAKQ 142154Z 23006KT 9SM CLR 34/24 A2998
SE 98 nm 126' KEMV 142215Z 00000KT 10SM CLR 33/24 A3000
TAFs for airports near CHO, sorted by distance:
N 0 nm 640' KCHO TAF
  AMD KCHO 142008Z 1420/1518 16008G16KT P6SM FEW250
  FM150000 00000KT P6SM FEW250
  FM150500 18005KT P6SM FEW250
  FM151600 26003KT P6SM FEW200
NE 58 nm 10' KNYG TAF KNYG 1321/1421 VRB06KT 9999 SKC QNH3005INS
  FM140600 VRB06KT 9999 SCT200 QNH2995INS LAST NO
  AMDS AFT 1321 NEXT 1509 AUTOMATED SENSOR METWATCH 1321 TIL 1511 T32/1321Z T22/1411Z
SW 60 nm 938' KLYH TAF KLYH 141720Z 1418/1518 26005KT P6SM SCT060
  FM142300 VRB02KT P6SM FEW250
SE 65 nm 167' KRIC KRIC 141722Z 1418/1518 19008KT P6SM SCT060
  FM142300 22005KT P6SM SKC
NE 67 nm 312' KIAD KIAD 142102Z 1421/1524 23009KT P6SM FEW250
  FM142300 21005KT P6SM FEW250
  FM150300 18004KT P6SM FEW250
  FM151600 26005KT P6SM FEW250
NE 69 nm 73' KDAA TAF KDAA 121200Z 1212/1318 VRB05KT 9999 VCSH SCT030 BKN060 OVC100 QNH2996INS
  BECMG 1212/1213 03006KT 9000 -SHRA FEW015 BKN030 OVC070 QNH3000INS
  BECMG 1213/1214 04007KT 8000 -SHRA VCTS SCT015CB OVC030 QNH3011INS
  TEMPO 1214/1301 VRB12G20KT 4800 TSRA BR SCT008 OVC015CB
  BECMG 1302/1303 VRB06KT 9000 -RA OVC010 QNH3010INS
  BECMG 1306/1307 VRB05KT 4800 -RA BR OVC008 QNH3011INS
  BECMG 1312/1313 16007KT 8000 -SHRA VCTS SCT009 BKN015CB OVC030 QNH3012INS TX27/1220Z TN24/1310Z
N 78 nm 564' KMRB KMRB 141727Z 1418/1518 25006KT P6SM FEW250
  FM142300 21005KT P6SM FEW250
  FM150300 17004KT P6SM FEW250
  FM151000 23005KT P6SM FEW200
  FM151400 28004KT P6SM FEW200
NE 79 nm 14' KDCA KDCA 142102Z 1421/1524 21008G16KT P6SM VCTS SCT060CB SCT250
  FM142200 08008G16KT P6SM FEW200
  FM150500 17005KT P6SM FEW200
  FM151600 26005KT P6SM FEW200
NW 79 nm 1987' KEKN TAF
  AMD KEKN 141918Z 1419/1518 26008G14KT P6SM SCT070
  FM150100 00000KT P6SM SKC
  FM150900 00000KT 3SM BR SCT002
  FM151200 23003KT P6SM SCT120
NE 84 nm 279' KADW TAF
  AMD KADW 141910Z 1419/1523 27012KT 9999 VCTS SCT050CB QNH2997INS
  TEMPO 1419/1421 29012G18KT 8000 -TSRA BKN050CB
  BECMG 1420/1421 22006KT 9999 NSW SCT050 QNH2994INS
  BECMG 1500/1501 17006KT 9999 FEW070 QNH2992INS
  BECMG 1506/1507 26006KT 9999 SCT060 SCT250 QNH2986INS
  BECMG 1518/1519 23012KT 9999 -SHRA VCTS BKN040CB QNH2983INS TX38/1419Z TN23/1509Z
SW 87 nm 1175' KROA TAF KROA 141720Z 1418/1518 29009G15KT P6SM BKN080
  FM150100 28003KT P6SM FEW250
W 93 nm 2301' KLWB TAF KLWB 141720Z 1418/1518 28006KT P6SM SCT050 BKN070
  FM150000 00000KT P6SM SCT080
  FM151000 00000KT 3SM BR FEW090
  FM151100 VRB02KT 1/4SM FG FEW001
  FM151300 23004KT P6SM SCT250
E 96 nm 38' KNHK TAF KNHK 1415/1515 VRB06KT 9999 FEW030 FEW100 QNH2995INS
  FM141700 15008KT 9999 VCTS FEW040CB SCT060 SCT070 QNH2993INS
  BECMG 1504/1506 23008KT 9999 NSW FEW060 FEW080 QNH2989INS TX32/1418Z TN26/1509Z FN00268

Shortcut to this page: http://wxbay.com.

Data may contain errors.